createdAt,value
2023-05-04T00:02:21.180Z,9.10
2023-05-04T00:04:49.425Z,9.10
2023-05-04T00:07:17.954Z,9.00
2023-05-04T00:09:46.188Z,9.00
2023-05-04T00:12:14.388Z,9.10
2023-05-04T00:14:43.743Z,9.00
2023-05-04T00:17:12.905Z,9.10
2023-05-04T00:19:42.366Z,9.00
2023-05-04T00:22:10.523Z,9.00
2023-05-04T00:24:38.872Z,9.00
2023-05-04T00:27:06.918Z,9.00
2023-05-04T00:29:34.958Z,9.00
2023-05-04T00:32:04.863Z,9.00
2023-05-04T00:34:34.366Z,9.00
2023-05-04T00:37:02.652Z,9.00
2023-05-04T00:39:31.053Z,9.00
2023-05-04T00:41:59.074Z,8.90
2023-05-04T00:44:27.593Z,8.90
2023-05-04T00:46:55.878Z,8.90
2023-05-04T00:49:26.302Z,8.90
2023-05-04T00:51:56.051Z,8.90
2023-05-04T00:54:25.296Z,8.90
2023-05-04T00:56:53.320Z,9.00
2023-05-04T00:59:21.741Z,8.90
2023-05-04T01:01:49.861Z,8.90
2023-05-04T01:04:18.061Z,8.90
2023-05-04T01:06:53.818Z,8.80
2023-05-04T01:09:29.915Z,8.80
2023-05-04T01:12:05.500Z,8.80
2023-05-04T01:14:34.901Z,8.80
2023-05-04T01:17:05.602Z,8.80
2023-05-04T01:19:34.155Z,8.80
2023-05-04T01:22:03.512Z,8.80
2023-05-04T01:24:32.717Z,8.80
2023-05-04T01:27:05.845Z,8.70
2023-05-04T01:29:40.131Z,8.70
2023-05-04T01:32:09.082Z,8.70
2023-05-04T01:34:37.832Z,8.70
2023-05-04T01:37:07.846Z,8.60
2023-05-04T01:39:35.941Z,8.60
2023-05-04T01:42:03.986Z,8.60
2023-05-04T01:44:32.142Z,8.60
2023-05-04T01:47:00.246Z,8.50
2023-05-04T01:49:28.310Z,8.50
2023-05-04T01:51:56.352Z,8.50
2023-05-04T01:54:26.207Z,8.50
2023-05-04T01:56:54.301Z,8.50
2023-05-04T01:59:22.289Z,8.60
2023-05-04T02:01:50.835Z,8.60
2023-05-04T02:04:18.941Z,8.60
2023-05-04T02:06:46.922Z,8.60
2023-05-04T02:09:15.163Z,8.60
2023-05-04T02:11:44.649Z,8.60
2023-05-04T02:14:12.736Z,8.60
2023-05-04T02:16:40.764Z,8.50
2023-05-04T02:19:09.004Z,8.50
2023-05-04T02:21:36.979Z,8.50
2023-05-04T02:24:06.988Z,8.50
2023-05-04T02:26:36.303Z,8.50
2023-05-04T02:29:06.224Z,8.50
2023-05-04T02:31:34.363Z,8.50
2023-05-04T02:34:03.048Z,8.40
2023-05-04T02:36:31.501Z,8.30
2023-05-04T02:39:00.527Z,8.30
2023-05-04T02:41:28.592Z,8.20
2023-05-04T02:43:56.637Z,8.10
2023-05-04T02:46:26.854Z,8.10
2023-05-04T02:48:54.958Z,8.00
2023-05-04T02:51:23.004Z,7.90
2023-05-04T02:53:51.118Z,7.90
2023-05-04T02:56:19.304Z,7.80
2023-05-04T02:58:47.376Z,7.80
2023-05-04T03:01:15.361Z,7.80
2023-05-04T03:03:44.914Z,7.80
2023-05-04T03:06:12.933Z,7.70
2023-05-04T03:08:40.965Z,7.70
2023-05-04T03:11:09.001Z,7.60
2023-05-04T03:13:36.972Z,7.60
2023-05-04T03:16:06.975Z,7.50
2023-05-04T03:18:35.031Z,7.50
2023-05-04T03:21:04.538Z,7.40
2023-05-04T03:23:32.749Z,7.50
2023-05-04T03:26:00.817Z,7.40
2023-05-04T03:28:29.011Z,7.40
2023-05-04T03:30:57.126Z,7.30
2023-05-04T03:33:25.288Z,7.30
2023-05-04T03:35:53.210Z,7.30
2023-05-04T03:38:22.542Z,7.20
2023-05-04T03:40:50.520Z,7.20
2023-05-04T03:43:18.660Z,7.20
2023-05-04T03:45:46.895Z,7.20
2023-05-04T03:48:15.025Z,7.20
2023-05-04T03:50:43.038Z,7.10
2023-05-04T03:53:11.105Z,7.10
2023-05-04T03:55:40.468Z,7.10
2023-05-04T03:58:08.440Z,7.10
2023-05-04T04:00:36.671Z,7.10
2023-05-04T04:03:05.003Z,7.10
2023-05-04T04:05:33.059Z,7.10
2023-05-04T04:08:01.082Z,7.00
2023-05-04T04:10:29.127Z,7.00
2023-05-04T04:12:58.752Z,7.00
2023-05-04T04:15:26.752Z,7.00
2023-05-04T04:17:54.995Z,7.10
2023-05-04T04:20:23.170Z,7.10
2023-05-04T04:22:51.920Z,7.10
2023-05-04T04:25:20.065Z,7.10
2023-05-04T04:27:48.136Z,7.20
2023-05-04T04:30:17.908Z,7.20
2023-05-04T04:32:47.066Z,7.20
2023-05-04T04:35:15.555Z,7.30
2023-05-04T04:37:43.751Z,7.30
2023-05-04T04:40:13.149Z,7.30
2023-05-04T04:42:42.039Z,7.40
2023-05-04T04:45:11.020Z,7.40
2023-05-04T04:47:41.681Z,7.40
2023-05-04T04:50:10.915Z,7.40
2023-05-04T04:52:41.249Z,7.50
2023-05-04T04:55:10.144Z,7.50
2023-05-04T04:57:38.257Z,7.50
2023-05-04T05:00:09.740Z,7.50
2023-05-04T05:02:38.045Z,7.60
2023-05-04T05:05:08.907Z,7.60
2023-05-04T05:07:37.131Z,7.60
2023-05-04T05:10:06.392Z,7.60
2023-05-04T05:12:34.483Z,7.60
2023-05-04T05:15:04.573Z,7.60
2023-05-04T05:17:33.819Z,7.70
2023-05-04T05:20:01.768Z,7.70
2023-05-04T05:22:31.857Z,7.70
2023-05-04T05:24:59.981Z,7.80
2023-05-04T05:27:29.291Z,7.80
2023-05-04T05:29:57.391Z,7.80
2023-05-04T05:32:25.631Z,7.90
2023-05-04T05:34:53.546Z,7.90
2023-05-04T05:37:21.775Z,8.00
2023-05-04T05:39:51.224Z,8.20
2023-05-04T05:42:20.454Z,8.10
2023-05-04T05:44:48.565Z,8.20
2023-05-04T05:47:16.949Z,8.30
2023-05-04T05:49:46.358Z,8.30
2023-05-04T05:52:14.702Z,8.40
2023-05-04T05:54:42.748Z,8.40
2023-05-04T05:57:12.272Z,8.50
2023-05-04T05:59:42.288Z,8.50
2023-05-04T06:02:10.315Z,8.60
2023-05-04T06:04:38.429Z,8.60
2023-05-04T06:07:06.736Z,8.70
2023-05-04T06:09:34.980Z,8.70
2023-05-04T06:12:03.429Z,8.80
2023-05-04T06:14:32.765Z,8.80
2023-05-04T06:17:00.772Z,8.90
2023-05-04T06:19:31.455Z,8.90
2023-05-04T06:21:59.606Z,9.00
2023-05-04T06:24:29.795Z,9.00
2023-05-04T06:26:57.949Z,9.10
2023-05-04T06:29:26.097Z,9.10
2023-05-04T06:31:55.783Z,9.10
2023-05-04T06:34:23.772Z,9.20
2023-05-04T06:36:51.755Z,9.20
2023-05-04T06:39:19.783Z,9.30
2023-05-04T06:41:47.916Z,9.30
2023-05-04T06:44:17.622Z,9.40
2023-05-04T06:46:45.915Z,9.40
2023-05-04T06:49:15.214Z,9.40
2023-05-04T06:51:43.166Z,9.50
2023-05-04T06:54:11.281Z,9.60
2023-05-04T06:56:40.153Z,9.60
2023-05-04T06:59:09.933Z,9.70
2023-05-04T07:01:38.016Z,9.80
2023-05-04T07:04:06.519Z,9.80
2023-05-04T07:06:36.087Z,9.80
2023-05-04T07:09:04.279Z,9.90
2023-05-04T07:11:32.684Z,9.90
2023-05-04T07:14:00.714Z,10.00
2023-05-04T07:16:28.929Z,10.10
2023-05-04T07:18:57.541Z,10.10
2023-05-04T07:21:28.137Z,10.20
2023-05-04T07:23:58.684Z,10.30
2023-05-04T07:26:26.901Z,10.30
2023-05-04T07:28:55.185Z,10.40
2023-05-04T07:31:23.347Z,10.40
2023-05-04T07:33:51.312Z,10.40
2023-05-04T07:36:19.466Z,10.50
2023-05-04T07:38:47.458Z,10.50
2023-05-04T07:41:16.805Z,10.60
2023-05-04T07:43:45.071Z,10.70
2023-05-04T07:46:13.487Z,10.70
2023-05-04T07:48:41.550Z,10.80
2023-05-04T07:51:14.088Z,10.90
2023-05-04T07:53:43.181Z,10.90
2023-05-04T07:56:12.431Z,11.00
2023-05-04T07:58:42.487Z,11.00
2023-05-04T08:01:10.555Z,11.00
2023-05-04T08:03:38.487Z,11.10
2023-05-04T08:06:06.614Z,11.10
2023-05-04T08:08:34.572Z,11.20
2023-05-04T08:11:15.857Z,11.30
2023-05-04T08:13:49.784Z,11.30
2023-05-04T08:16:17.908Z,11.30
2023-05-04T08:18:45.840Z,11.40
2023-05-04T08:21:14.627Z,11.40
2023-05-04T08:23:44.072Z,11.50
2023-05-04T08:26:12.255Z,11.60
2023-05-04T08:28:41.397Z,11.70
2023-05-04T08:31:11.002Z,11.80
2023-05-04T08:33:39.318Z,11.90
2023-05-04T08:36:09.548Z,11.90
2023-05-04T08:38:37.888Z,12.00
2023-05-04T08:41:06.425Z,12.10
2023-05-04T08:43:36.341Z,12.30
2023-05-04T08:46:05.344Z,12.40
2023-05-04T08:48:35.135Z,12.40
2023-05-04T08:51:04.833Z,12.50
2023-05-04T08:53:33.920Z,12.50
2023-05-04T08:56:04.546Z,12.50
2023-05-04T08:58:38.036Z,12.60
2023-05-04T09:01:08.984Z,12.60
2023-05-04T09:03:38.989Z,12.60
2023-05-04T09:06:09.013Z,12.60
2023-05-04T09:08:37.211Z,12.70
2023-05-04T09:11:05.562Z,12.80
2023-05-04T09:13:34.282Z,12.90
2023-05-04T09:16:03.979Z,12.90
2023-05-04T09:18:40.837Z,12.90
2023-05-04T09:21:09.460Z,13.00
2023-05-04T09:23:47.569Z,13.00
2023-05-04T09:26:15.732Z,13.00
2023-05-04T09:28:43.901Z,13.10
2023-05-04T09:31:12.360Z,13.10
2023-05-04T09:33:42.870Z,13.20
2023-05-04T09:36:15.563Z,13.20
2023-05-04T09:38:44.419Z,13.20
2023-05-04T09:41:12.848Z,13.20
2023-05-04T09:43:41.970Z,13.20
2023-05-04T09:46:18.246Z,13.20
2023-05-04T09:48:55.197Z,13.30
2023-05-04T09:51:24.777Z,13.30
2023-05-04T09:53:54.012Z,13.30
2023-05-04T09:56:31.724Z,13.40
2023-05-04T09:59:00.432Z,13.40
2023-05-04T10:01:30.241Z,13.50
2023-05-04T10:04:00.052Z,13.60
2023-05-04T10:06:30.513Z,13.60
2023-05-04T10:09:00.640Z,13.70
2023-05-04T10:11:29.668Z,13.80
2023-05-04T10:13:58.288Z,13.80
2023-05-04T10:16:38.244Z,13.80
2023-05-04T10:19:24.089Z,13.80
2023-05-04T10:22:08.514Z,13.80
2023-05-04T10:25:01.806Z,13.90
2023-05-04T10:27:55.645Z,13.90
2023-05-04T10:30:24.974Z,14.00
2023-05-04T10:32:57.290Z,14.00
2023-05-04T10:35:27.619Z,14.10
2023-05-04T10:37:57.034Z,14.10
2023-05-04T10:40:38.638Z,14.10
2023-05-04T10:43:11.156Z,14.20
2023-05-04T10:45:39.958Z,14.30
2023-05-04T10:48:08.956Z,14.30
2023-05-04T10:50:45.665Z,14.40
2023-05-04T10:53:14.490Z,14.60
2023-05-04T10:55:43.434Z,14.80
2023-05-04T10:58:14.757Z,15.30
2023-05-04T11:00:44.809Z,15.80
2023-05-04T11:03:14.147Z,16.40
2023-05-04T11:05:45.236Z,16.90
2023-05-04T11:08:17.973Z,17.50
2023-05-04T11:10:47.367Z,17.80
2023-05-04T11:13:16.685Z,18.10
2023-05-04T11:15:48.762Z,18.50
2023-05-04T11:18:26.759Z,18.70
2023-05-04T11:20:56.838Z,18.90
2023-05-04T11:23:25.260Z,19.00
2023-05-04T11:25:53.648Z,19.10
2023-05-04T11:28:32.100Z,19.40
2023-05-04T11:31:00.112Z,19.70
2023-05-04T11:33:28.807Z,20.00
2023-05-04T11:36:02.441Z,20.10
2023-05-04T11:38:30.918Z,20.30
2023-05-04T11:40:58.984Z,20.50
2023-05-04T11:43:27.075Z,20.20
2023-05-04T11:45:57.986Z,19.70
2023-05-04T11:48:26.255Z,19.40
2023-05-04T11:50:55.351Z,19.50
2023-05-04T11:53:24.750Z,19.70
2023-05-04T11:55:54.419Z,20.00
2023-05-04T11:58:26.773Z,20.30
2023-05-04T12:00:58.011Z,20.60
2023-05-04T12:03:39.839Z,20.90
2023-05-04T12:06:16.548Z,20.80
2023-05-04T12:08:46.073Z,20.50
2023-05-04T12:11:16.320Z,20.30
2023-05-04T12:13:46.179Z,20.30
2023-05-04T12:16:15.838Z,20.50
2023-05-04T12:18:45.348Z,20.90
2023-05-04T12:21:15.466Z,21.20
2023-05-04T12:23:45.498Z,21.60
2023-05-04T12:26:14.236Z,22.00
2023-05-04T12:28:43.470Z,22.20
2023-05-04T12:31:11.589Z,22.20
2023-05-04T12:33:39.670Z,22.20
2023-05-04T12:36:08.419Z,22.20
2023-05-04T12:38:37.701Z,22.10
2023-05-04T12:41:10.878Z,22.20
2023-05-04T12:43:39.287Z,22.20
2023-05-04T12:46:07.929Z,22.20
2023-05-04T12:48:36.136Z,22.20
2023-05-04T12:51:05.286Z,22.00
2023-05-04T12:53:33.504Z,21.70
2023-05-04T12:56:03.701Z,21.40
2023-05-04T12:58:33.110Z,21.10
2023-05-04T13:01:01.280Z,21.10
2023-05-04T13:03:29.462Z,21.10
2023-05-04T13:05:59.186Z,21.40
2023-05-04T13:08:27.229Z,21.70
2023-05-04T13:10:55.371Z,22.10
2023-05-04T13:13:28.035Z,22.50
2023-05-04T13:15:57.918Z,22.80
2023-05-04T13:18:27.772Z,23.00
2023-05-04T13:20:56.174Z,23.10
2023-05-04T13:23:24.570Z,23.10
2023-05-04T13:25:52.974Z,23.40
2023-05-04T13:28:21.196Z,23.70
2023-05-04T13:30:49.454Z,23.90
2023-05-04T13:33:29.352Z,24.00
2023-05-04T13:35:58.613Z,24.00
2023-05-04T13:38:27.033Z,24.00
2023-05-04T13:40:55.362Z,23.80
2023-05-04T13:43:23.718Z,23.50
2023-05-04T13:45:52.141Z,23.50
2023-05-04T13:48:21.484Z,23.60
2023-05-04T13:50:49.524Z,23.40
2023-05-04T13:53:17.803Z,23.20
2023-05-04T13:55:46.125Z,23.30
2023-05-04T13:58:14.133Z,23.70
2023-05-04T14:00:42.187Z,24.00
2023-05-04T14:03:10.250Z,24.10
2023-05-04T14:05:39.981Z,24.00
2023-05-04T14:08:08.140Z,23.80
2023-05-04T14:10:37.600Z,23.70
2023-05-04T14:13:05.929Z,23.70
2023-05-04T14:15:33.870Z,23.80
2023-05-04T14:18:02.087Z,24.00
2023-05-04T14:20:30.165Z,24.20
2023-05-04T14:22:59.673Z,24.60
2023-05-04T14:25:27.602Z,25.00
2023-05-04T14:27:55.628Z,25.30
2023-05-04T14:30:24.048Z,25.50
2023-05-04T14:32:54.327Z,25.60
2023-05-04T14:35:22.779Z,25.80
2023-05-04T14:37:50.720Z,25.80
2023-05-04T14:40:20.016Z,25.90
2023-05-04T14:42:48.204Z,26.00
2023-05-04T14:45:16.270Z,25.90
2023-05-04T14:47:44.267Z,25.80
2023-05-04T14:50:13.214Z,25.50
2023-05-04T14:52:41.272Z,25.10
2023-05-04T14:55:10.323Z,24.60
2023-05-04T14:57:40.040Z,24.10
2023-05-04T15:00:09.705Z,23.80
2023-05-04T15:02:39.549Z,23.50
2023-05-04T15:05:10.446Z,23.30
2023-05-04T15:07:38.567Z,23.00
2023-05-04T15:10:08.487Z,22.80
2023-05-04T15:12:37.819Z,22.60
2023-05-04T15:15:08.489Z,22.40
2023-05-04T15:17:36.882Z,22.30
2023-05-04T15:20:05.835Z,22.30
2023-05-04T15:22:34.074Z,22.30
2023-05-04T15:25:04.260Z,22.20
2023-05-04T15:27:32.321Z,22.20
2023-05-04T15:30:00.612Z,22.20
2023-05-04T15:32:30.132Z,22.20
2023-05-04T15:35:05.434Z,22.20
2023-05-04T15:37:34.588Z,22.10
2023-05-04T15:40:03.511Z,22.00
2023-05-04T15:42:31.582Z,21.80
2023-05-04T15:44:59.565Z,21.70
2023-05-04T15:47:28.948Z,21.50
2023-05-04T15:49:56.975Z,21.40
2023-05-04T15:52:25.175Z,21.30
2023-05-04T15:54:53.309Z,21.30
2023-05-04T15:57:21.655Z,21.20
2023-05-04T15:59:49.971Z,21.20
2023-05-04T16:02:18.039Z,21.10
2023-05-04T16:04:47.463Z,21.10
2023-05-04T16:07:15.878Z,21.00
2023-05-04T16:09:43.842Z,21.00
2023-05-04T16:12:12.100Z,20.90
2023-05-04T16:14:40.138Z,20.90
2023-05-04T16:17:08.306Z,20.90
2023-05-04T16:19:36.763Z,21.10
2023-05-04T16:22:06.311Z,21.40
2023-05-04T16:24:36.111Z,21.70
2023-05-04T16:27:04.576Z,22.00
2023-05-04T16:29:32.736Z,22.40
2023-05-04T16:32:00.873Z,22.60
2023-05-04T16:34:29.088Z,22.60
2023-05-04T16:36:57.147Z,22.50
2023-05-04T16:39:31.629Z,22.30
2023-05-04T16:41:59.911Z,22.00
2023-05-04T16:44:27.864Z,21.80
2023-05-04T16:46:55.883Z,21.70
2023-05-04T16:49:24.183Z,21.50
2023-05-04T16:51:53.507Z,21.40
2023-05-04T16:54:22.130Z,21.30
2023-05-04T16:56:52.107Z,21.10
2023-05-04T16:59:20.136Z,20.90
2023-05-04T17:01:48.823Z,20.80
2023-05-04T17:04:16.913Z,20.70
2023-05-04T17:06:45.540Z,20.60
2023-05-04T17:09:13.536Z,20.50
2023-05-04T17:11:41.564Z,20.30
2023-05-04T17:14:10.979Z,20.20
2023-05-04T17:16:39.270Z,20.10
2023-05-04T17:19:10.242Z,19.90
2023-05-04T17:21:39.172Z,19.90
2023-05-04T17:24:07.651Z,19.70
2023-05-04T17:26:35.623Z,19.70
2023-05-04T17:29:03.764Z,19.60
2023-05-04T17:31:33.162Z,19.60
2023-05-04T17:34:01.481Z,19.60
2023-05-04T17:36:29.578Z,19.50
2023-05-04T17:38:57.681Z,19.50
2023-05-04T17:41:25.993Z,19.50
2023-05-04T17:43:55.745Z,19.40
2023-05-04T17:46:25.099Z,19.40
2023-05-04T17:48:54.787Z,19.30
2023-05-04T17:51:23.829Z,19.20
2023-05-04T17:53:51.839Z,19.10
2023-05-04T17:56:21.292Z,19.00
2023-05-04T17:58:49.268Z,18.90
2023-05-04T18:01:17.680Z,18.90
2023-05-04T18:03:45.842Z,18.80
2023-05-04T18:06:15.389Z,18.70
2023-05-04T18:08:43.360Z,18.60
2023-05-04T18:11:11.498Z,18.50
2023-05-04T18:13:39.556Z,18.40
2023-05-04T18:16:07.854Z,18.20
2023-05-04T18:18:35.891Z,18.10
2023-05-04T18:21:03.897Z,18.00
2023-05-04T18:23:33.310Z,17.90
2023-05-04T18:26:01.211Z,17.80
2023-05-04T18:28:29.264Z,17.70
2023-05-04T18:30:57.328Z,17.60
2023-05-04T18:33:25.314Z,17.60
2023-05-04T18:35:53.381Z,17.40
2023-05-04T18:38:21.422Z,17.40
2023-05-04T18:40:53.680Z,17.30
2023-05-04T18:43:21.677Z,17.20
2023-05-04T18:45:49.747Z,17.10
2023-05-04T18:48:18.017Z,17.10
2023-05-04T18:50:53.963Z,17.00
2023-05-04T18:53:22.348Z,16.80
2023-05-04T18:56:02.714Z,16.80
2023-05-04T18:58:31.239Z,16.70
2023-05-04T19:00:59.714Z,16.70
2023-05-04T19:03:28.509Z,16.60
2023-05-04T19:05:56.699Z,16.60
2023-05-04T19:08:24.785Z,16.60
2023-05-04T19:10:52.980Z,16.50
2023-05-04T19:13:22.361Z,16.50
2023-05-04T19:15:50.809Z,16.50
2023-05-04T19:18:19.217Z,16.40
2023-05-04T19:20:48.416Z,16.40
2023-05-04T19:23:16.396Z,16.30
2023-05-04T19:25:45.653Z,16.30
2023-05-04T19:28:13.727Z,16.20
2023-05-04T19:30:43.360Z,16.10
2023-05-04T19:33:11.360Z,16.10
2023-05-04T19:35:39.547Z,16.10
2023-05-04T19:38:07.598Z,16.00
2023-05-04T19:40:35.783Z,16.00
2023-05-04T19:43:04.023Z,16.00
2023-05-04T19:45:32.683Z,16.00
2023-05-04T19:48:04.791Z,15.90
2023-05-04T19:50:33.123Z,15.90
2023-05-04T19:53:01.073Z,15.80
2023-05-04T19:55:29.126Z,15.70
2023-05-04T19:57:57.174Z,15.60
2023-05-04T20:00:25.460Z,15.50
2023-05-04T20:02:53.757Z,15.50
2023-05-04T20:05:23.421Z,15.50
2023-05-04T20:07:51.447Z,15.40
2023-05-04T20:10:19.511Z,15.30
2023-05-04T20:12:48.033Z,15.30
2023-05-04T20:15:16.424Z,15.20
2023-05-04T20:17:44.514Z,15.20
2023-05-04T20:20:19.047Z,15.20
2023-05-04T20:22:49.156Z,15.10
2023-05-04T20:25:17.288Z,15.10
2023-05-04T20:27:46.545Z,15.00
2023-05-04T20:30:14.906Z,15.00
2023-05-04T20:32:44.236Z,14.90
2023-05-04T20:35:12.547Z,14.90
2023-05-04T20:37:40.582Z,14.70
2023-05-04T20:40:12.158Z,14.80
2023-05-04T20:42:40.886Z,14.80
2023-05-04T20:45:10.122Z,14.80
2023-05-04T20:47:38.430Z,14.70
2023-05-04T20:50:08.028Z,14.70
2023-05-04T20:52:38.386Z,14.70
2023-05-04T20:55:08.063Z,14.60
2023-05-04T20:57:37.498Z,14.50
2023-05-04T21:00:06.917Z,14.40
2023-05-04T21:02:35.330Z,14.40
2023-05-04T21:05:03.768Z,14.40
2023-05-04T21:07:31.751Z,14.30
2023-05-04T21:09:59.911Z,14.30
2023-05-04T21:12:27.889Z,14.20
2023-05-04T21:14:57.230Z,14.20
2023-05-04T21:17:25.783Z,14.10
2023-05-04T21:19:54.072Z,14.10
2023-05-04T21:22:22.081Z,14.10
2023-05-04T21:24:50.393Z,14.10
2023-05-04T21:27:18.562Z,14.10
2023-05-04T21:29:46.723Z,14.00
2023-05-04T21:32:16.025Z,14.00
2023-05-04T21:34:44.016Z,14.00
2023-05-04T21:37:12.364Z,13.90
2023-05-04T21:39:40.387Z,13.90
2023-05-04T21:42:08.561Z,13.90
2023-05-04T21:44:36.609Z,13.90
2023-05-04T21:47:04.991Z,13.90
2023-05-04T21:49:34.612Z,13.90
2023-05-04T21:52:02.757Z,13.80
2023-05-04T21:54:30.851Z,13.80
2023-05-04T21:56:58.898Z,13.80
2023-05-04T21:59:26.889Z,13.80
2023-05-04T22:01:54.917Z,13.70
2023-05-04T22:04:23.118Z,13.70
2023-05-04T22:06:52.621Z,13.70
2023-05-04T22:09:20.591Z,13.80
2023-05-04T22:11:49.535Z,13.70
2023-05-04T22:14:17.609Z,13.70
2023-05-04T22:16:45.808Z,13.70
2023-05-04T22:19:14.014Z,13.70
2023-05-04T22:21:42.177Z,13.60
2023-05-04T22:24:11.757Z,13.60
2023-05-04T22:26:41.263Z,13.50
2023-05-04T22:29:09.321Z,13.50
2023-05-04T22:31:37.275Z,13.50
2023-05-04T22:34:05.441Z,13.40
2023-05-04T22:36:33.446Z,13.40
2023-05-04T22:39:01.412Z,13.50
2023-05-04T22:41:31.136Z,13.50
2023-05-04T22:43:59.203Z,13.40
2023-05-04T22:46:27.327Z,13.40
2023-05-04T22:48:55.453Z,13.40
2023-05-04T22:51:23.490Z,13.40
2023-05-04T22:53:51.921Z,13.40
2023-05-04T22:56:19.933Z,13.40
2023-05-04T22:58:49.485Z,13.40
2023-05-04T23:01:18.133Z,13.40
2023-05-04T23:03:46.405Z,13.40
2023-05-04T23:06:15.338Z,13.30
2023-05-04T23:08:44.215Z,13.30
2023-05-04T23:11:12.295Z,13.30
2023-05-04T23:13:40.480Z,13.30
2023-05-04T23:16:10.405Z,13.30
2023-05-04T23:18:38.443Z,13.30
2023-05-04T23:21:06.860Z,13.30
2023-05-04T23:23:35.014Z,13.20
2023-05-04T23:26:03.048Z,13.20
2023-05-04T23:28:31.053Z,13.20
2023-05-04T23:30:59.231Z,13.20
2023-05-04T23:33:28.826Z,13.20
2023-05-04T23:35:57.004Z,13.20
2023-05-04T23:38:25.068Z,13.20
2023-05-04T23:40:53.855Z,13.10
2023-05-04T23:43:23.629Z,13.10
2023-05-04T23:45:51.900Z,13.10
2023-05-04T23:48:19.956Z,13.10
2023-05-04T23:51:03.918Z,13.10
2023-05-04T23:53:32.228Z,13.10
2023-05-04T23:56:03.350Z,13.10
2023-05-04T23:58:32.328Z,13.10
